createdAt,value
2022-10-31T00:05:26.003Z,92.1
2022-10-31T00:11:26.019Z,93.1
2022-10-31T00:17:26.013Z,93.2
2022-10-31T00:23:25.986Z,93.2
2022-10-31T00:29:26.032Z,94.3
2022-10-31T00:35:26.180Z,94.9
2022-10-31T00:41:25.993Z,94.2
2022-10-31T00:47:26.091Z,91.4
2022-10-31T00:53:25.993Z,91.3
2022-10-31T00:59:26.010Z,93.4
2022-10-31T01:05:26.031Z,94
2022-10-31T01:11:26.027Z,94.6
2022-10-31T01:17:26.025Z,95.3
2022-10-31T01:23:26.037Z,94.6
2022-10-31T01:29:26.045Z,93.1
2022-10-31T01:35:26.010Z,92.3
2022-10-31T01:41:26.050Z,92.7
2022-10-31T01:47:26.009Z,93.6
2022-10-31T01:53:27.035Z,94.6
2022-10-31T01:59:26.063Z,95.9
2022-10-31T02:05:26.018Z,95.8
2022-10-31T02:11:25.998Z,96.1
2022-10-31T02:17:26.064Z,97.1
2022-10-31T02:23:26.003Z,97.7
2022-10-31T02:29:26.026Z,99.2
2022-10-31T02:35:26.052Z,100
2022-10-31T02:41:26.031Z,100
2022-10-31T02:47:26.053Z,100
2022-10-31T02:53:26.044Z,100
2022-10-31T02:59:26.038Z,100
2022-10-31T03:05:26.006Z,100
2022-10-31T03:11:26.048Z,100
2022-10-31T03:17:26.026Z,100
2022-10-31T03:23:26.017Z,100
2022-10-31T03:29:26.055Z,100
2022-10-31T03:35:26.011Z,100
2022-10-31T03:41:26.004Z,100
2022-10-31T03:47:26.036Z,100
2022-10-31T03:53:25.992Z,100
2022-10-31T03:59:26.038Z,100
2022-10-31T04:05:26.047Z,100
2022-10-31T04:11:26.032Z,100
2022-10-31T04:17:26.018Z,100
2022-10-31T04:23:26.055Z,100
2022-10-31T04:29:26.047Z,100
2022-10-31T04:35:26.017Z,100
2022-10-31T04:41:26.077Z,100
2022-10-31T04:47:26.024Z,100
2022-10-31T04:53:26.012Z,100
2022-10-31T04:59:26.057Z,100
2022-10-31T05:05:26.033Z,100
2022-10-31T05:11:26.027Z,100
2022-10-31T05:17:26.060Z,100
2022-10-31T05:23:26.027Z,100
2022-10-31T05:29:26.001Z,100
2022-10-31T05:35:26.052Z,100
2022-10-31T05:41:26.048Z,100
2022-10-31T05:47:26.134Z,100
2022-10-31T05:53:26.038Z,100
2022-10-31T05:59:26.030Z,100
2022-10-31T06:05:26.066Z,100
2022-10-31T06:11:26.054Z,100
2022-10-31T06:17:26.034Z,100
2022-10-31T06:23:26.011Z,100
2022-10-31T06:29:26.054Z,100
2022-10-31T06:35:26.032Z,100
2022-10-31T06:41:26.071Z,100
2022-10-31T06:47:26.073Z,100
2022-10-31T06:53:26.180Z,100
2022-10-31T06:59:26.041Z,100
2022-10-31T07:05:26.044Z,100
2022-10-31T07:11:26.023Z,100
2022-10-31T07:17:29.899Z,100
2022-10-31T07:23:26.076Z,100
2022-10-31T07:29:26.040Z,100
2022-10-31T07:35:26.030Z,98.1
2022-10-31T07:41:26.095Z,97.3
2022-10-31T07:47:26.017Z,97.7
2022-10-31T07:53:26.026Z,95.6
2022-10-31T07:59:26.048Z,93.7
2022-10-31T08:05:26.054Z,92.9
2022-10-31T08:11:26.070Z,93.6
2022-10-31T08:17:26.065Z,92.2
2022-10-31T08:23:26.046Z,89.2
2022-10-31T08:29:26.052Z,87.8
2022-10-31T08:35:26.063Z,86.4
2022-10-31T08:41:26.041Z,85
2022-10-31T08:47:26.053Z,84.7
2022-10-31T08:53:26.071Z,85.5
2022-10-31T08:59:26.053Z,85.7
2022-10-31T09:05:26.036Z,85.5
2022-10-31T09:11:26.109Z,87.2
2022-10-31T09:17:26.050Z,85.8
2022-10-31T09:23:26.067Z,85.5
2022-10-31T09:29:26.050Z,85.7
2022-10-31T09:35:26.106Z,82.4
2022-10-31T09:41:26.043Z,77
2022-10-31T09:47:26.090Z,68.3
2022-10-31T09:53:26.044Z,66.2
2022-10-31T09:59:26.029Z,62.7
2022-10-31T10:05:26.081Z,62.3
2022-10-31T10:11:26.052Z,64.3
2022-10-31T10:17:26.065Z,64.9
2022-10-31T10:23:26.078Z,67.5
2022-10-31T10:29:26.063Z,68.5
2022-10-31T10:35:26.065Z,71.2
2022-10-31T10:41:29.311Z,75
2022-10-31T10:47:26.039Z,75.2
2022-10-31T10:53:26.064Z,75.3
2022-10-31T10:59:26.090Z,76.3
2022-10-31T11:05:26.075Z,74.5
2022-10-31T11:11:26.054Z,75.4
2022-10-31T11:17:26.117Z,76.8
2022-10-31T11:23:26.053Z,76.9
2022-10-31T11:29:26.233Z,78.4
2022-10-31T11:35:26.181Z,77.4
2022-10-31T11:41:26.106Z,76.5
2022-10-31T11:47:26.062Z,74.8
2022-10-31T11:53:26.291Z,75.4
2022-10-31T11:59:26.080Z,74.7
2022-10-31T12:05:26.103Z,74.9
2022-10-31T12:11:26.105Z,73.6
2022-10-31T12:17:26.086Z,74.2
2022-10-31T12:23:26.082Z,73.2
2022-10-31T12:29:26.090Z,72.9
2022-10-31T12:35:26.160Z,72.9
2022-10-31T12:41:26.071Z,72.8
2022-10-31T12:47:26.102Z,74.3
2022-10-31T12:53:26.089Z,76.2
2022-10-31T12:59:26.083Z,75.3
2022-10-31T13:05:26.121Z,75.6
2022-10-31T13:11:26.120Z,75.9
2022-10-31T13:17:26.069Z,75.3
2022-10-31T13:29:28.358Z,74.5
2022-10-31T13:35:26.102Z,73
2022-10-31T13:41:26.140Z,71.8
2022-10-31T13:47:26.087Z,72.6
2022-10-31T13:53:26.090Z,72.6
2022-10-31T13:59:26.147Z,73.3
2022-10-31T14:05:26.171Z,74.7
2022-10-31T14:11:26.132Z,72
2022-10-31T14:17:26.116Z,71.5
2022-10-31T14:23:26.095Z,71
2022-10-31T14:29:26.100Z,71
2022-10-31T14:35:26.159Z,70.6
2022-10-31T14:41:28.133Z,70.8
2022-10-31T14:47:26.102Z,71.3
2022-10-31T14:53:26.118Z,71.5
2022-10-31T14:59:26.104Z,71.9
2022-10-31T15:05:26.132Z,72
2022-10-31T15:11:26.122Z,71.1
2022-10-31T15:17:26.109Z,71.5
2022-10-31T15:23:26.101Z,70.5
2022-10-31T15:29:26.147Z,71
2022-10-31T15:35:26.108Z,72.3
2022-10-31T15:41:26.166Z,72.6
2022-10-31T15:47:26.132Z,72.8
2022-10-31T15:53:26.089Z,72.9
2022-10-31T15:59:26.122Z,73.3
2022-10-31T16:05:26.117Z,74.3
2022-10-31T16:11:26.138Z,74.2
2022-10-31T16:17:26.133Z,74.5
2022-10-31T16:23:26.145Z,74.5
2022-10-31T16:29:26.116Z,73.6
2022-10-31T16:35:26.120Z,72.7
2022-10-31T16:41:26.170Z,72.4
2022-10-31T16:47:28.523Z,72.1
2022-10-31T16:53:26.115Z,72
2022-10-31T16:59:26.140Z,71.7
2022-10-31T17:05:26.126Z,71.8
2022-10-31T17:11:26.137Z,72.1
2022-10-31T17:17:26.135Z,72.7
2022-10-31T17:23:26.159Z,73.3
2022-10-31T17:29:26.127Z,74.3
2022-10-31T17:35:26.151Z,75.5
2022-10-31T17:41:26.124Z,76.1
2022-10-31T17:47:26.113Z,76.9
2022-10-31T17:53:26.152Z,77.6
2022-10-31T17:59:26.110Z,79
2022-10-31T18:05:26.150Z,79
2022-10-31T18:11:26.144Z,79.2
2022-10-31T18:17:26.110Z,79.9
2022-10-31T18:23:26.141Z,80.9
2022-10-31T18:29:26.145Z,81.5
2022-10-31T18:35:26.160Z,82.7
2022-10-31T18:41:26.127Z,84.3
2022-10-31T18:47:26.187Z,84.7
2022-10-31T18:53:26.123Z,85.3
2022-10-31T18:59:26.133Z,85.6
2022-10-31T19:05:26.149Z,85.9
2022-10-31T19:11:26.139Z,85.5
2022-10-31T19:17:26.138Z,85.6
2022-10-31T19:23:26.155Z,85.6
2022-10-31T19:29:26.120Z,85.6
2022-10-31T19:35:26.138Z,86.4
2022-10-31T19:41:26.159Z,87
2022-10-31T19:47:26.115Z,87.7
2022-10-31T19:53:26.150Z,87.1
2022-10-31T19:59:26.141Z,88.1
2022-10-31T20:05:26.151Z,88.4
2022-10-31T20:11:26.142Z,88.9
2022-10-31T20:17:26.154Z,89.5
2022-10-31T20:23:26.129Z,89.6
2022-10-31T20:29:26.137Z,89.6
2022-10-31T20:35:26.136Z,89
2022-10-31T20:41:26.186Z,89.3
2022-10-31T20:47:26.178Z,88.9
2022-10-31T20:53:26.139Z,88.8
2022-10-31T20:59:26.127Z,88.8
2022-10-31T21:05:26.119Z,88.8
2022-10-31T21:11:26.165Z,88.8
2022-10-31T21:17:26.142Z,88.6
2022-10-31T21:23:26.125Z,88.2
2022-10-31T21:29:26.177Z,88.5
2022-10-31T21:35:26.125Z,88.9
2022-10-31T21:41:26.148Z,89.2
2022-10-31T21:47:26.154Z,88.5
2022-10-31T21:53:26.135Z,88.4
2022-10-31T21:59:26.152Z,87.5
2022-10-31T22:05:26.164Z,87.6
2022-10-31T22:11:26.148Z,87.9
2022-10-31T22:17:26.159Z,87.7
2022-10-31T22:23:26.166Z,87.5
2022-10-31T22:29:26.195Z,87.4
2022-10-31T22:35:26.151Z,87.5
2022-10-31T22:41:26.172Z,87.5
2022-10-31T22:47:26.148Z,87.2
2022-10-31T22:53:26.145Z,87.3
2022-10-31T22:59:26.180Z,87.3
2022-10-31T23:05:26.155Z,87.4
2022-10-31T23:11:26.145Z,86.6
2022-10-31T23:17:26.158Z,86.8
2022-10-31T23:23:26.154Z,86.1
2022-10-31T23:29:26.145Z,85.9
2022-10-31T23:35:26.171Z,85.9
2022-10-31T23:41:26.155Z,85.5
2022-10-31T23:47:26.139Z,84.3
2022-10-31T23:53:26.298Z,83.3
2022-10-31T23:59:26.138Z,82.7
